7CL6 weather

Playa Vista 2 Heliport
Culver City, California, United States

Public forecast

Using degrees Fahrenheit for public forecast. Weather courtesy of forecast.io.

Closest aviation weather report (METAR) to Playa Vista 2 Heliport

Closest report is Los Angeles International Airport, 2.2 nm (4.1 km) S. Retrieved 2020/02/16 23:53 UTC (29 minutes ago):

KLAX 162353Z 27010KT 10SM FEW007 FEW250 17/11 A3002 RMK AO2 SLP167 T01720111 10194 20161 56012

Closest aviation forecast (TAF) to Playa Vista 2 Heliport

Closest forecast is Los Angeles International Airport, 2.2 nm (4.1 km) S. Retrieved 2020-02-17 00:30 UTC (0 seconds ago):

TAF KLAX 162327Z 1700/1806 25008KT P6SM FEW007 FEW280 FM170400 VRB03KT P6SM SCT200 FM170900 VRB03KT 4SM BR OVC007 FM171300 VRB03KT 1SM BR OVC005 FM171700 VRB03KT 6SM HZ SCT008 FM172000 26010KT P6SM SKC FM180300 VRB03KT P6SM SKC